Portage la Prairie, Canada
Current Conditions -  °F | °C
As of 10:00 PM on Thursday 23 Oct 2014 (Local Time) from CYPG Reporting Station
Overcast Overcast  
Wind Chill: 57°   Ceiling: 17000
Heat Index: 57°   Visibility: 15mi
Dew Point: 37°   Wind: 10mph
Humidity: 48%   Direction: 210°SSW
Pressure: 29.71"   Gusts: NA
Location:  49.97°N, 98.29°W
Report Text: CYPG 240300Z 21009KT 15SM OVC170 14/03 A2971 RMK AC8 SLP067
Loading
Personal Weather Stations






























Interactive Weather Map New forecast layout! Learn more

10-Day Weather Forecast

Advertisements
Track Severe Weather on mobile